Time;durP1;ratioP1;P1;durP2;ratioP2;P2;SDS_P1;SDS_P2;PMS_P1;PMS_P2;Temp;Humidity;BMP_temperature;BMP_pressure;BME280_temperature;BME280_humidity;BME280_pressure;Samples;Min_cycle;Max_cycle;Signal;HPM_P1;HPM_P2
2021/04/14 00:01:02;;;;;;;3.13;1.83;;;6.50;63.80;;;;;;5015423;28;20037;-72
2021/04/14 00:03:29;;;;;;;5.30;1.80;;;6.60;63.90;;;;;;5014499;28;20581;-72
2021/04/14 00:05:55;;;;;;;4.68;2.10;;;6.60;63.90;;;;;;5015069;28;20115;-71
2021/04/14 00:08:21;;;;;;;4.60;2.00;;;6.60;63.90;;;;;;5014091;28;20057;-72
2021/04/14 00:10:49;;;;;;;4.22;2.10;;;6.60;63.90;;;;;;5014949;28;20033;-72
2021/04/14 00:13:18;;;;;;;3.75;1.75;;;6.60;63.90;;;;;;5014930;28;20041;-72
2021/04/14 00:15:48;;;;;;;4.68;2.28;;;6.70;63.90;;;;;;5014866;28;20049;-72
2021/04/14 00:18:15;;;;;;;3.63;1.80;;;6.70;63.90;;;;;;5012603;28;20044;-72
2021/04/14 00:20:41;;;;;;;4.15;1.90;;;6.70;63.90;;;;;;5014145;28;20037;-72
2021/04/14 00:23:07;;;;;;;4.07;1.92;;;6.80;63.90;;;;;;5015183;28;20038;-73
2021/04/14 00:25:42;;;;;;;4.38;1.80;;;6.70;63.90;;;;;;5029371;28;20108;-72
2021/04/14 00:28:08;;;;;;;4.57;1.70;;;6.80;64.00;;;;;;5013707;28;20422;-72
2021/04/14 00:30:33;;;;;;;3.17;1.90;;;6.80;64.00;;;;;;5013956;28;20514;-71
2021/04/14 00:32:59;;;;;;;4.97;1.85;;;6.80;64.00;;;;;;5014239;28;20030;-72
2021/04/14 00:35:26;;;;;;;4.53;1.90;;;6.80;64.00;;;;;;5012896;28;20109;-73
2021/04/14 00:37:52;;;;;;;4.43;1.80;;;6.80;64.10;;;;;;5012527;28;20022;-73
2021/04/14 00:40:32;;;;;;;5.22;1.92;;;6.80;64.10;;;;;;5012330;28;20021;-73
2021/04/14 00:42:58;;;;;;;2.60;1.67;;;6.80;64.10;;;;;;5013228;28;20121;-72
2021/04/14 00:45:25;;;;;;;4.40;2.00;;;6.80;64.10;;;;;;5012891;28;20085;-72
2021/04/14 00:47:51;;;;;;;3.75;1.70;;;6.80;64.20;;;;;;5013583;28;20024;-72
2021/04/14 00:50:21;;;;;;;4.90;2.05;;;6.80;64.30;;;;;;5013603;28;20104;-72
2021/04/14 00:52:46;;;;;;;2.80;1.65;;;6.80;64.40;;;;;;5013509;28;20026;-72
2021/04/14 00:55:15;;;;;;;3.13;1.77;;;6.80;64.40;;;;;;5013313;28;20462;-72
2021/04/14 00:57:41;;;;;;;1.75;1.30;;;6.80;64.40;;;;;;5013005;28;20076;-72
2021/04/14 01:00:11;;;;;;;4.63;1.83;;;6.80;64.30;;;;;;5013023;28;20409;-72
2021/04/14 01:02:37;;;;;;;4.53;1.90;;;6.90;64.40;;;;;;5012529;28;20151;-72
2021/04/14 01:05:07;;;;;;;3.03;1.80;;;6.80;64.40;;;;;;5013796;28;20026;-72
2021/04/14 01:07:32;;;;;;;3.47;1.65;;;6.90;64.50;;;;;;5013230;28;20029;-72
2021/04/14 01:09:58;;;;;;;2.85;1.65;;;6.90;64.50;;;;;;5013861;28;20109;-72
2021/04/14 01:12:23;;;;;;;5.35;2.00;;;6.90;64.60;;;;;;5011811;28;20379;-73
2021/04/14 01:14:52;;;;;;;6.13;2.20;;;6.90;64.70;;;;;;5013958;28;20022;-73
2021/04/14 01:17:17;;;;;;;4.43;1.75;;;6.90;64.80;;;;;;5013809;28;20018;-72
2021/04/14 01:19:43;;;;;;;4.35;2.05;;;6.90;64.90;;;;;;5012990;28;20364;-72
2021/04/14 01:22:08;;;;;;;5.80;2.50;;;6.90;65.00;;;;;;5013549;28;20073;-72
2021/04/14 01:24:34;;;;;;;2.97;2.22;;;6.90;65.00;;;;;;5012684;28;20020;-73
2021/04/14 01:27:00;;;;;;;3.13;1.40;;;6.90;65.20;;;;;;5013763;28;20447;-71
2021/04/14 01:29:25;;;;;;;3.72;1.63;;;6.90;65.30;;;;;;5012974;28;20132;-73
2021/04/14 01:31:53;;;;;;;3.72;1.80;;;6.90;65.40;;;;;;5013438;28;20044;-73
2021/04/14 01:34:21;;;;;;;3.15;1.70;;;6.90;65.50;;;;;;5013159;28;20025;-72
2021/04/14 01:36:50;;;;;;;4.60;1.70;;;6.90;65.60;;;;;;5012692;28;20438;-72
2021/04/14 01:39:16;;;;;;;3.65;1.85;;;6.90;65.70;;;;;;5011491;28;20474;-72
2021/04/14 01:41:43;;;;;;;6.45;2.25;;;6.90;65.80;;;;;;5012620;28;20079;-72
2021/04/14 01:44:10;;;;;;;3.38;1.98;;;6.90;65.80;;;;;;5013291;28;20469;-72
2021/04/14 01:46:38;;;;;;;3.95;1.65;;;6.90;65.80;;;;;;5010825;28;20052;-73
2021/04/14 01:49:05;;;;;;;5.53;1.70;;;6.90;65.90;;;;;;5011833;28;20030;-73
2021/04/14 01:51:31;;;;;;;3.45;1.88;;;6.90;66.00;;;;;;5012330;28;20052;-71
2021/04/14 01:53:56;;;;;;;4.93;1.73;;;6.90;66.10;;;;;;5012673;28;20029;-72
2021/04/14 01:56:22;;;;;;;4.13;1.98;;;6.90;66.10;;;;;;5012754;28;20478;-72
2021/04/14 01:58:52;;;;;;;4.88;1.98;;;6.90;66.20;;;;;;5012072;28;20030;-73
2021/04/14 02:01:18;;;;;;;5.60;1.80;;;6.90;66.40;;;;;;5012898;28;20121;-73
2021/04/14 02:03:45;;;;;;;4.30;2.22;;;6.80;66.40;;;;;;5011998;28;20045;-74
2021/04/14 02:06:13;;;;;;;9.52;2.38;;;6.80;66.50;;;;;;5012754;28;20030;-72
2021/04/14 02:08:39;;;;;;;6.45;1.60;;;6.90;66.60;;;;;;5012129;28;20138;-72
2021/04/14 02:11:06;;;;;;;6.00;1.85;;;6.90;66.70;;;;;;5012707;28;20026;-72
2021/04/14 02:13:36;;;;;;;5.53;2.10;;;6.80;66.70;;;;;;5010798;28;20447;-73
2021/04/14 02:16:06;;;;;;;3.92;2.10;;;6.90;66.80;;;;;;5012653;28;20059;-73
2021/04/14 02:18:32;;;;;;;5.63;1.80;;;6.90;66.80;;;;;;5012055;28;20029;-72
2021/04/14 02:21:00;;;;;;;4.88;2.00;;;6.90;66.90;;;;;;5012569;28;20071;-72
2021/04/14 02:23:32;;;;;;;4.07;1.90;;;6.90;67.00;;;;;;5012494;28;20470;-73
2021/04/14 02:26:04;;;;;;;6.03;1.88;;;6.90;67.00;;;;;;5011185;28;20072;-72
2021/04/14 02:28:30;;;;;;;5.68;2.40;;;6.90;67.00;;;;;;5010446;28;20462;-73
2021/04/14 02:30:57;;;;;;;3.22;1.48;;;6.90;67.00;;;;;;5012285;28;20037;-72
2021/04/14 02:33:23;;;;;;;3.67;2.13;;;6.90;67.00;;;;;;5012544;28;20037;-72
2021/04/14 02:35:50;;;;;;;5.50;1.75;;;6.90;67.00;;;;;;5011717;28;20037;-72
2021/04/14 02:38:17;;;;;;;4.03;2.30;;;6.90;66.90;;;;;;5012256;28;20020;-72
2021/04/14 02:40:43;;;;;;;4.20;2.20;;;6.90;67.00;;;;;;5011634;28;20037;-71
2021/04/14 02:43:08;;;;;;;4.38;1.90;;;6.90;67.00;;;;;;5010208;28;20026;-72
2021/04/14 02:45:37;;;;;;;3.00;1.73;;;6.90;67.20;;;;;;5010872;28;20133;-72
2021/04/14 02:48:06;;;;;;;4.10;1.90;;;6.90;67.20;;;;;;5012213;28;20046;-72
2021/04/14 02:50:32;;;;;;;3.33;1.77;;;6.90;67.20;;;;;;5011201;28;20105;-73
2021/04/14 02:52:58;;;;;;;4.93;2.00;;;6.90;67.20;;;;;;5011889;28;20109;-73
2021/04/14 02:55:26;;;;;;;4.70;2.47;;;6.90;67.30;;;;;;5010705;28;20022;-72
2021/04/14 02:57:52;;;;;;;7.35;2.50;;;6.90;67.30;;;;;;5011099;28;20092;-73
2021/04/14 03:00:20;;;;;;;3.90;2.13;;;6.90;67.50;;;;;;5012198;28;20419;-72
2021/04/14 03:02:46;;;;;;;5.30;2.17;;;6.90;67.60;;;;;;5011059;28;20022;-72
2021/04/14 03:05:13;;;;;;;4.85;2.00;;;6.80;67.60;;;;;;5012117;28;20348;-72
2021/04/14 03:07:40;;;;;;;4.82;2.10;;;6.80;67.60;;;;;;5010185;28;20451;-72
2021/04/14 03:10:07;;;;;;;5.70;2.35;;;6.80;67.70;;;;;;5010840;28;20030;-71
2021/04/14 03:12:33;;;;;;;5.45;2.40;;;6.80;67.80;;;;;;5011259;28;20034;-71
2021/04/14 03:14:59;;;;;;;5.97;2.38;;;6.70;68.00;;;;;;5011588;28;20018;-71
2021/04/14 03:17:24;;;;;;;5.13;2.65;;;6.60;68.20;;;;;;4995245;28;20034;-71
2021/04/14 03:19:50;;;;;;;6.05;2.35;;;6.60;68.40;;;;;;4991340;28;20080;-72
2021/04/14 03:22:17;;;;;;;5.30;2.38;;;6.50;68.40;;;;;;4992033;28;20113;-73
2021/04/14 03:24:43;;;;;;;8.02;2.38;;;6.50;68.60;;;;;;4991686;28;20030;-72
2021/04/14 03:27:08;;;;;;;5.63;2.45;;;6.50;68.60;;;;;;4992339;28;20027;-71
2021/04/14 03:29:34;;;;;;;6.72;3.08;;;6.50;68.70;;;;;;4991522;28;20030;-72
2021/04/14 03:32:00;;;;;;;5.00;2.42;;;6.40;68.60;;;;;;4992373;28;20485;-71
2021/04/14 03:34:25;;;;;;;5.25;2.60;;;6.40;68.70;;;;;;4992090;28;20026;-72
2021/04/14 03:36:51;;;;;;;6.13;2.20;;;6.40;68.70;;;;;;4991527;28;20451;-72
2021/04/14 03:39:17;;;;;;;6.90;2.92;;;6.40;68.80;;;;;;4992051;28;20073;-72
2021/04/14 03:41:43;;;;;;;7.13;2.70;;;6.50;68.90;;;;;;4991109;28;20034;-73
2021/04/14 03:44:08;;;;;;;7.05;3.00;;;6.40;68.90;;;;;;4991508;28;20030;-73
2021/04/14 03:46:34;;;;;;;6.63;2.38;;;6.40;69.00;;;;;;4991236;28;20085;-72
2021/04/14 03:49:00;;;;;;;4.32;2.83;;;6.40;69.00;;;;;;4992020;28;20070;-72
2021/04/14 03:51:26;;;;;;;7.95;3.42;;;6.40;69.20;;;;;;4991888;28;20117;-72
2021/04/14 03:53:53;;;;;;;6.82;2.88;;;6.40;69.30;;;;;;4993809;28;20034;-72
2021/04/14 03:56:20;;;;;;;6.10;3.03;;;6.40;69.40;;;;;;4994380;28;20057;-72
2021/04/14 03:58:54;;;;;;;7.20;2.97;;;6.30;69.40;;;;;;4993536;28;20443;-72
2021/04/14 04:01:26;;;;;;;6.30;2.78;;;6.30;69.50;;;;;;4995442;28;20027;-72
2021/04/14 04:03:52;;;;;;;7.20;2.95;;;6.30;69.50;;;;;;5009955;28;20019;-71
2021/04/14 04:06:18;;;;;;;7.70;2.95;;;6.30;69.50;;;;;;4999636;28;20022;-72
2021/04/14 04:08:44;;;;;;;7.35;3.08;;;6.30;69.60;;;;;;5013786;28;20030;-71
2021/04/14 04:11:11;;;;;;;6.22;2.85;;;6.20;69.60;;;;;;5014214;28;20036;-71
2021/04/14 04:13:37;;;;;;;5.18;2.85;;;6.20;69.60;;;;;;5011892;28;20409;-72
2021/04/14 04:16:03;;;;;;;6.88;2.90;;;6.20;69.70;;;;;;5014197;28;20037;-71
2021/04/14 04:18:29;;;;;;;5.32;2.30;;;6.30;69.60;;;;;;5014094;28;20028;-72
2021/04/14 04:20:55;;;;;;;7.93;3.08;;;6.30;69.50;;;;;;5013657;28;20022;-71
2021/04/14 04:23:21;;;;;;;4.47;2.35;;;6.30;69.50;;;;;;5014044;28;20044;-72
2021/04/14 04:25:47;;;;;;;7.35;2.40;;;6.30;69.50;;;;;;5013709;28;20030;-72
2021/04/14 04:28:15;;;;;;;6.03;2.63;;;6.30;69.50;;;;;;5014019;28;20017;-72
2021/04/14 04:30:41;;;;;;;5.82;2.20;;;6.30;69.50;;;;;;5013360;28;20029;-71
2021/04/14 04:33:07;;;;;;;3.92;2.15;;;6.30;69.50;;;;;;5030018;28;20022;-72
2021/04/14 04:35:36;;;;;;;3.47;2.15;;;6.40;69.40;;;;;;5014473;28;20026;-72
2021/04/14 04:38:02;;;;;;;4.82;2.20;;;6.30;69.30;;;;;;5013922;28;20018;-72
2021/04/14 04:40:29;;;;;;;4.65;2.17;;;6.30;69.40;;;;;;5013178;28;20026;-72
2021/04/14 04:42:55;;;;;;;4.82;2.25;;;6.30;69.50;;;;;;5014188;28;20018;-72
2021/04/14 04:45:22;;;;;;;5.72;2.05;;;6.30;69.50;;;;;;5015883;28;20022;-73
2021/04/14 04:47:49;;;;;;;8.73;2.67;;;6.30;69.50;;;;;;5014374;28;20050;-73
2021/04/14 04:50:15;;;;;;;5.07;2.15;;;6.20;69.60;;;;;;5012726;28;20026;-78
2021/04/14 04:52:41;;;;;;;4.72;2.05;;;6.30;69.70;;;;;;5013695;28;20037;-80
2021/04/14 04:55:09;;;;;;;3.88;2.00;;;6.20;69.80;;;;;;5013090;28;20025;-79
2021/04/14 04:57:34;;;;;;;8.77;2.58;;;6.20;69.90;;;;;;5012224;28;20105;-80
2021/04/14 05:00:00;;;;;;;4.82;2.28;;;6.20;69.90;;;;;;5010033;28;20081;-79
2021/04/14 05:02:25;;;;;;;6.38;2.10;;;6.20;69.90;;;;;;5011767;28;20454;-79
2021/04/14 05:04:53;;;;;;;5.38;2.55;;;6.20;69.80;;;;;;5010571;28;20071;-80
2021/04/14 05:07:19;;;;;;;3.22;1.98;;;6.30;69.70;;;;;;5011055;28;20026;-80
2021/04/14 05:09:45;;;;;;;6.45;2.30;;;6.30;69.70;;;;;;5011463;28;20030;-80
2021/04/14 05:12:13;;;;;;;4.90;2.25;;;6.30;69.50;;;;;;5012136;28;20052;-82
2021/04/14 05:14:38;;;;;;;4.38;1.95;;;6.40;69.60;;;;;;5012657;28;20101;-80
2021/04/14 05:17:04;;;;;;;4.65;2.10;;;6.40;69.50;;;;;;5010477;28;20595;-80
2021/04/14 05:19:30;;;;;;;4.45;2.03;;;6.50;69.40;;;;;;5011046;28;20033;-81
2021/04/14 05:21:58;;;;;;;6.30;2.38;;;6.50;69.30;;;;;;5010491;28;20040;-79
2021/04/14 05:24:24;;;;;;;6.00;2.28;;;6.50;69.30;;;;;;5011134;28;20068;-78
2021/04/14 05:26:50;;;;;;;5.63;2.30;;;6.60;69.30;;;;;;5010326;28;20669;-78
2021/04/14 05:29:16;;;;;;;6.20;2.75;;;6.50;69.30;;;;;;5011154;28;20477;-78
2021/04/14 05:31:44;;;;;;;7.55;2.75;;;6.50;69.30;;;;;;5010718;28;20093;-78
2021/04/14 05:34:10;;;;;;;7.03;2.88;;;6.50;69.50;;;;;;5010849;28;20458;-78
2021/04/14 05:36:37;;;;;;;6.55;2.33;;;6.50;69.60;;;;;;5008306;28;20022;-77
2021/04/14 05:39:03;;;;;;;6.65;2.28;;;6.60;69.70;;;;;;5010079;28;20390;-77
2021/04/14 05:41:29;;;;;;;6.80;2.25;;;6.50;69.70;;;;;;5010612;28;20030;-77
2021/04/14 05:43:55;;;;;;;4.05;2.08;;;6.50;69.60;;;;;;5011131;28;20018;-72
2021/04/14 05:46:24;;;;;;;5.00;2.10;;;6.60;69.70;;;;;;5011806;28;20046;-72
2021/04/14 05:48:50;;;;;;;4.70;1.98;;;6.60;69.60;;;;;;5012310;28;20030;-71
2021/04/14 05:51:21;;;;;;;6.22;2.05;;;6.60;69.70;;;;;;5012524;28;20022;-72
2021/04/14 05:53:48;;;;;;;6.38;2.42;;;6.70;69.70;;;;;;5011741;28;20022;-72
2021/04/14 05:56:15;;;;;;;5.00;2.65;;;6.70;69.70;;;;;;5012626;28;20076;-73
2021/04/14 05:58:41;;;;;;;4.55;2.30;;;6.70;69.70;;;;;;5011499;28;20018;-72
2021/04/14 06:01:09;;;;;;;5.20;2.13;;;6.70;69.60;;;;;;5012226;28;20033;-73
2021/04/14 06:03:34;;;;;;;5.65;2.53;;;6.80;69.60;;;;;;5012838;28;20080;-71
2021/04/14 06:06:00;;;;;;;5.03;2.45;;;6.80;69.50;;;;;;5012163;28;20100;-72
2021/04/14 06:08:27;;;;;;;5.25;2.33;;;6.90;69.40;;;;;;5012285;28;20030;-72
2021/04/14 06:10:53;;;;;;;9.88;3.70;;;6.90;69.20;;;;;;4994521;28;20021;-72
2021/04/14 06:13:19;;;;;;;7.32;2.90;;;7.00;69.20;;;;;;5012502;28;20028;-73
2021/04/14 06:15:45;;;;;;;8.07;2.83;;;7.10;69.00;;;;;;5012294;28;20419;-72
2021/04/14 06:18:11;;;;;;;8.57;3.00;;;7.20;68.90;;;;;;5011503;28;20050;-72
2021/04/14 06:20:37;;;;;;;4.45;2.15;;;7.20;68.80;;;;;;5012223;28;20093;-72
2021/04/14 06:23:08;;;;;;;4.45;2.45;;;7.20;68.90;;;;;;5011865;28;20053;-73
2021/04/14 06:28:22;;;;;;;6.05;2.38;;;7.30;68.90;;;;;;5012466;28;20048;-72
2021/04/14 06:30:48;;;;;;;9.43;2.55;;;7.20;69.00;;;;;;5011377;28;20394;-73
2021/04/14 06:33:15;;;;;;;6.35;2.15;;;7.20;69.00;;;;;;5012181;28;20125;-72
2021/04/14 06:35:41;;;;;;;8.77;2.83;;;7.20;69.10;;;;;;5010703;28;20030;-73
2021/04/14 06:38:07;;;;;;;5.32;2.63;;;7.20;69.20;;;;;;5011193;28;20347;-72
2021/04/14 06:45:43;;;;;;;4.43;2.15;;;7.20;69.30;;;;;;5012003;28;20038;-72
2021/04/14 06:48:40;;;;;;;7.28;2.20;;;7.30;69.40;;;;;;5010918;28;20129;-72
2021/04/14 06:51:35;;;;;;;7.38;3.00;;;7.30;69.40;;;;;;5011345;28;20042;-71
2021/04/14 06:54:29;;;;;;;6.53;2.75;;;7.30;69.40;;;;;;5011383;28;20022;-72
2021/04/14 06:57:03;;;;;;;8.52;2.60;;;7.30;69.40;;;;;;5010073;28;20390;-73
2021/04/14 06:59:33;;;;;;;6.07;2.70;;;7.30;69.40;;;;;;5011779;28;20022;-73
2021/04/14 07:02:08;;;;;;;8.77;2.42;;;7.30;69.30;;;;;;5011271;28;20044;-73
2021/04/14 07:04:52;;;;;;;6.20;2.65;;;7.40;69.30;;;;;;5011772;28;20021;-72
2021/04/14 07:07:27;;;;;;;5.75;2.80;;;7.40;69.20;;;;;;5011674;28;20029;-72
2021/04/14 07:09:59;;;;;;;6.78;2.60;;;7.50;69.10;;;;;;5010978;28;20409;-73
2021/04/14 07:12:26;;;;;;;9.38;3.40;;;7.50;68.90;;;;;;5012109;28;20026;-72
2021/04/14 07:14:54;;;;;;;6.88;2.90;;;7.60;68.70;;;;;;5011181;28;20112;-73
2021/04/14 07:17:19;;;;;;;4.85;1.90;;;7.70;68.50;;;;;;5011744;28;20076;-73
2021/04/14 07:19:58;;;;;;;7.30;2.85;;;7.80;68.20;;;;;;5011590;28;20033;-73
2021/04/14 07:23:00;;;;;;;6.82;2.65;;;8.00;67.90;;;;;;5011789;28;20117;-73
2021/04/14 07:25:29;;;;;;;3.83;2.53;;;8.20;67.50;;;;;;5011855;28;20022;-72
2021/04/14 07:28:09;;;;;;;7.90;3.35;;;8.20;67.10;;;;;;5010648;28;20022;-73
2021/04/14 07:30:40;;;;;;;7.00;3.00;;;8.30;67.00;;;;;;5015301;28;20029;-72
2021/04/14 07:33:26;;;;;;;9.05;2.92;;;8.30;67.20;;;;;;5013615;28;20025;-72
2021/04/14 07:36:21;;;;;;;9.27;3.10;;;8.30;67.20;;;;;;5014839;28;20029;-74
2021/04/14 07:39:16;;;;;;;8.13;3.30;;;8.30;67.40;;;;;;5013902;28;20046;-72
2021/04/14 07:42:06;;;;;;;5.32;2.47;;;8.20;67.50;;;;;;5015438;28;20133;-72
2021/04/14 07:44:40;;;;;;;10.48;4.00;;;8.20;67.70;;;;;;5015167;28;20029;-72
2021/04/14 07:47:09;;;;;;;7.90;2.13;;;8.20;67.90;;;;;;5014467;28;20540;-72
2021/04/14 07:49:36;;;;;;;4.72;2.38;;;8.10;68.00;;;;;;5015229;28;20072;-72
2021/04/14 07:52:04;;;;;;;8.52;3.22;;;8.10;68.20;;;;;;5014488;28;20062;-72
2021/04/14 07:54:39;;;;;;;5.80;2.60;;;8.10;68.30;;;;;;5013589;28;20520;-72
2021/04/14 07:57:05;;;;;;;5.95;2.45;;;8.10;68.40;;;;;;5012957;28;20033;-72
2021/04/14 07:59:44;;;;;;;6.97;2.90;;;8.10;68.60;;;;;;5015247;28;20026;-71
2021/04/14 08:02:15;;;;;;;4.15;2.70;;;8.10;68.70;;;;;;5014361;28;20061;-72
2021/04/14 08:04:46;;;;;;;4.75;2.50;;;8.10;68.70;;;;;;5014928;28;20022;-73
2021/04/14 08:07:22;;;;;;;6.57;2.55;;;8.10;68.70;;;;;;5014138;28;20033;-73
2021/04/14 08:09:54;;;;;;;7.63;2.17;;;8.10;68.60;;;;;;5013462;28;20042;-72
2021/04/14 08:12:27;;;;;;;6.63;2.20;;;8.10;68.70;;;;;;5014627;28;20389;-72
2021/04/14 08:15:05;;;;;;;6.13;2.80;;;8.10;68.90;;;;;;5014811;28;20030;-72
2021/04/14 08:17:30;;;;;;;4.65;2.20;;;8.00;69.00;;;;;;5014553;28;20030;-72
2021/04/14 08:19:59;;;;;;;5.05;2.42;;;7.90;69.20;;;;;;5013863;28;20385;-72
2021/04/14 08:22:26;;;;;;;5.35;2.35;;;7.90;69.40;;;;;;5013241;28;20443;-72
2021/04/14 08:24:55;;;;;;;5.22;2.25;;;7.90;69.40;;;;;;5014313;28;20087;-73
2021/04/14 08:27:40;;;;;;;5.65;2.38;;;7.90;69.60;;;;;;5014405;28;20022;-72
2021/04/14 08:30:07;;;;;;;4.97;1.98;;;7.90;69.60;;;;;;5013822;28;20030;-72
2021/04/14 08:32:52;;;;;;;7.30;2.80;;;7.90;69.40;;;;;;5014483;28;20041;-72
2021/04/14 08:35:38;;;;;;;6.85;2.53;;;8.00;69.40;;;;;;5012480;28;20026;-73
2021/04/14 08:38:29;;;;;;;4.90;2.30;;;8.10;69.20;;;;;;5012436;28;20030;-72
2021/04/14 08:41:00;;;;;;;4.72;2.55;;;8.20;68.80;;;;;;5013370;28;20462;-72
2021/04/14 08:43:38;;;;;;;6.13;2.45;;;8.40;68.40;;;;;;5014011;28;20042;-72
2021/04/14 08:46:23;;;;;;;5.35;2.53;;;8.60;67.90;;;;;;5012429;28;20027;-72
2021/04/14 08:49:03;;;;;;;6.45;2.85;;;8.70;67.40;;;;;;5013898;28;20073;-73
2021/04/14 08:51:41;;;;;;;6.30;2.90;;;8.70;67.50;;;;;;5014380;28;20068;-72
2021/04/14 08:54:11;;;;;;;7.38;3.08;;;8.80;67.30;;;;;;5013100;28;20394;-72
2021/04/14 08:56:37;;;;;;;7.65;2.42;;;8.80;67.10;;;;;;5013547;28;20525;-72
2021/04/14 08:59:03;;;;;;;5.47;2.58;;;8.90;67.00;;;;;;5013444;28;20026;-72
2021/04/14 09:01:31;;;;;;;5.97;2.10;;;9.00;66.90;;;;;;5013685;28;20037;-72
2021/04/14 09:04:00;;;;;;;5.10;2.60;;;9.00;66.90;;;;;;5013633;28;20586;-73
2021/04/14 09:06:29;;;;;;;7.47;3.08;;;9.10;66.90;;;;;;5013871;28;20026;-72
2021/04/14 09:08:56;;;;;;;7.18;2.85;;;9.20;66.90;;;;;;5013928;28;20462;-73
2021/04/14 09:11:26;;;;;;;8.13;2.83;;;9.30;66.80;;;;;;5013091;28;20056;-73
2021/04/14 09:14:03;;;;;;;7.28;2.95;;;9.30;66.20;;;;;;5013626;28;20022;-72
2021/04/14 09:16:46;;;;;;;6.85;3.85;;;9.20;65.30;;;;;;5012398;28;20473;-73
2021/04/14 09:19:26;;;;;;;7.15;2.85;;;9.00;64.90;;;;;;5013021;28;20022;-73
2021/04/14 09:22:01;;;;;;;6.32;2.83;;;8.90;65.60;;;;;;5012129;28;20500;-72
2021/04/14 09:24:52;;;;;;;10.15;3.83;;;8.90;65.60;;;;;;5012393;28;20421;-72
2021/04/14 09:27:25;;;;;;;10.00;3.58;;;9.00;65.50;;;;;;5012992;28;20071;-72
2021/04/14 09:30:00;;;;;;;6.05;3.47;;;9.10;65.40;;;;;;5012087;28;20030;-73
2021/04/14 09:32:54;;;;;;;8.07;2.85;;;9.20;65.10;;;;;;5012484;28;20101;-73
2021/04/14 09:35:28;;;;;;;7.75;3.67;;;9.20;65.10;;;;;;5012652;28;20022;-72
2021/04/14 09:38:21;;;;;;;7.38;3.55;;;9.20;64.90;;;;;;5013312;28;20417;-72
2021/04/14 09:40:46;;;;;;;8.20;4.05;;;9.10;65.00;;;;;;5013171;28;20026;-72
2021/04/14 09:43:32;;;;;;;7.32;3.90;;;9.00;65.30;;;;;;5012552;28;20029;-73
2021/04/14 09:46:02;;;;;;;7.22;3.25;;;9.00;65.20;;;;;;5013100;28;20452;-72
2021/04/14 09:48:45;;;;;;;4.72;2.40;;;8.90;65.40;;;;;;5013304;28;20486;-72
2021/04/14 09:51:16;;;;;;;5.05;2.40;;;8.90;65.60;;;;;;5012335;28;20034;-73
2021/04/14 09:53:43;;;;;;;5.90;2.53;;;8.90;65.60;;;;;;5012919;28;20026;-72
2021/04/14 09:56:19;;;;;;;5.05;2.42;;;8.90;65.70;;;;;;5011022;28;20350;-72
2021/04/14 09:59:09;;;;;;;6.85;3.25;;;8.90;66.30;;;;;;5012897;28;20430;-72
2021/04/14 10:01:39;;;;;;;6.30;2.97;;;8.90;65.70;;;;;;5012906;28;20084;-73
2021/04/14 10:04:19;;;;;;;8.18;3.70;;;8.90;65.60;;;;;;5012103;28;20026;-73
2021/04/14 10:06:47;;;;;;;6.43;2.92;;;8.80;65.80;;;;;;5012920;28;20033;-72
2021/04/14 10:09:29;;;;;;;8.25;3.25;;;8.70;66.30;;;;;;5012116;28;20080;-73
2021/04/14 10:12:08;;;;;;;8.30;3.92;;;8.60;66.90;;;;;;5012710;28;20022;-72
2021/04/14 10:14:46;;;;;;;11.32;4.13;;;8.40;67.30;;;;;;5012417;28;20022;-72
2021/04/14 10:17:13;;;;;;;7.45;3.45;;;8.40;67.50;;;;;;5012169;28;20026;-74
2021/04/14 10:19:39;;;;;;;10.35;3.97;;;8.30;67.80;;;;;;5012382;28;20030;-73
2021/04/14 10:22:14;;;;;;;7.47;3.83;;;8.20;68.10;;;;;;5011784;28;20037;-69
2021/04/14 10:24:40;;;;;;;7.35;3.75;;;8.10;68.60;;;;;;5012442;28;20014;-73
2021/04/14 10:27:06;;;;;;;6.78;3.22;;;7.90;69.10;;;;;;5011693;28;20021;-72
2021/04/14 10:29:41;;;;;;;8.20;3.45;;;7.80;69.40;;;;;;5012317;28;20037;-72
2021/04/14 10:32:15;;;;;;;6.85;2.60;;;7.90;69.60;;;;;;5011510;28;20512;-72
2021/04/14 10:34:41;;;;;;;7.90;2.75;;;7.90;69.60;;;;;;5011902;28;20022;-72
2021/04/14 10:37:18;;;;;;;6.10;2.83;;;7.90;69.60;;;;;;5011558;28;20037;-72
2021/04/14 10:39:44;;;;;;;5.38;2.60;;;8.00;69.80;;;;;;5010332;28;20037;-72
2021/04/14 10:42:27;;;;;;;7.65;2.83;;;8.00;69.80;;;;;;5009963;28;20497;-72
2021/04/14 10:45:01;;;;;;;8.48;3.13;;;8.00;70.00;;;;;;5012190;28;20018;-72
2021/04/14 10:47:29;;;;;;;8.48;2.70;;;8.00;70.00;;;;;;5010973;28;20053;-72
2021/04/14 10:50:06;;;;;;;4.97;2.60;;;8.00;70.20;;;;;;5012243;28;20546;-72
2021/04/14 10:52:33;;;;;;;6.10;2.80;;;8.10;70.50;;;;;;5012098;28;20029;-72
2021/04/14 10:55:05;;;;;;;8.82;3.22;;;8.00;70.70;;;;;;5010485;28;20112;-72
2021/04/14 10:57:32;;;;;;;5.53;2.78;;;8.10;71.10;;;;;;5011468;28;20105;-73
2021/04/14 11:00:15;;;;;;;9.23;2.78;;;8.10;71.50;;;;;;5011809;28;20053;-71
2021/04/14 11:02:44;;;;;;;7.68;3.28;;;8.20;71.50;;;;;;5011392;28;20505;-72
2021/04/14 11:05:14;;;;;;;9.70;2.55;;;8.20;71.30;;;;;;5010000;28;20397;-72
2021/04/14 11:07:41;;;;;;;8.23;3.92;;;8.40;71.30;;;;;;5010794;28;20048;-71
2021/04/14 11:10:11;;;;;;;5.82;3.08;;;8.50;71.30;;;;;;5012054;28;20437;-72
2021/04/14 11:12:44;;;;;;;8.18;3.55;;;8.60;71.60;;;;;;5010451;28;20530;-71
2021/04/14 11:15:19;;;;;;;4.55;2.80;;;8.60;71.80;;;;;;5011413;28;20022;-72
2021/04/14 11:18:03;;;;;;;8.07;3.70;;;8.60;71.90;;;;;;5011539;28;20028;-72
2021/04/14 11:21:06;;;;;;;5.85;2.67;;;8.60;72.40;;;;;;5009818;28;20030;-72
2021/04/14 11:23:35;;;;;;;6.97;3.50;;;8.50;72.50;;;;;;5000746;28;20069;-71
2021/04/14 11:26:25;;;;;;;7.32;3.08;;;8.50;72.50;;;;;;5011548;28;20462;-71
2021/04/14 11:28:54;;;;;;;6.82;2.72;;;8.60;72.40;;;;;;5011606;28;20045;-72
2021/04/14 11:31:55;;;;;;;7.28;3.33;;;8.60;72.30;;;;;;5009725;28;20033;-72
2021/04/14 11:34:34;;;;;;;7.05;3.00;;;8.60;72.00;;;;;;5006493;28;20066;-71
2021/04/14 11:37:16;;;;;;;7.38;2.55;;;8.60;72.20;;;;;;5011473;28;20079;-72
2021/04/14 11:39:59;;;;;;;7.35;2.70;;;8.70;72.10;;;;;;5011460;28;20034;-72
2021/04/14 11:42:39;;;;;;;6.78;2.72;;;8.90;71.70;;;;;;5011071;28;20471;-72
2021/04/14 11:45:06;;;;;;;8.73;3.55;;;9.20;71.20;;;;;;5011489;28;20030;-71
2021/04/14 11:47:38;;;;;;;7.85;3.75;;;9.40;71.20;;;;;;5009048;28;20049;-71
2021/04/14 11:50:33;;;;;;;6.78;3.13;;;9.70;70.80;;;;;;5011483;28;20526;-72
2021/04/14 11:53:01;;;;;;;7.05;2.95;;;10.00;70.10;;;;;;5002560;28;20042;-71
2021/04/14 11:55:26;;;;;;;5.93;2.92;;;10.10;70.00;;;;;;5010623;28;20493;-72
2021/04/14 11:58:02;;;;;;;5.68;2.63;;;10.10;69.30;;;;;;5011480;28;20022;-73
2021/04/14 12:00:42;;;;;;;4.68;2.45;;;10.10;69.40;;;;;;5010510;28;20038;-72
2021/04/14 12:03:25;;;;;;;4.57;2.10;;;10.00;69.30;;;;;;5011342;28;20030;-71
2021/04/14 12:05:56;;;;;;;5.13;2.45;;;9.90;69.30;;;;;;5011230;28;20018;-71
2021/04/14 12:08:23;;;;;;;5.07;2.70;;;9.90;68.40;;;;;;5010575;28;20021;-71
2021/04/14 12:10:49;;;;;;;5.63;2.83;;;9.90;68.50;;;;;;5010787;28;20034;-72
2021/04/14 12:13:15;;;;;;;5.18;2.25;;;10.00;68.30;;;;;;5010221;28;20474;-72
2021/04/14 12:15:41;;;;;;;5.35;2.25;;;10.10;68.10;;;;;;5013189;28;20037;-72
2021/04/14 12:18:06;;;;;;;6.30;2.38;;;10.30;67.90;;;;;;5014428;28;20030;-72
2021/04/14 12:20:32;;;;;;;5.38;2.35;;;10.40;67.60;;;;;;5013681;28;20430;-72
2021/04/14 12:22:58;;;;;;;3.20;1.83;;;10.50;67.20;;;;;;5013784;28;20026;-72
2021/04/14 12:25:24;;;;;;;4.95;2.30;;;10.60;67.00;;;;;;5012177;28;20022;-72
2021/04/14 12:27:50;;;;;;;5.90;2.20;;;10.70;66.80;;;;;;5014759;28;20528;-72
2021/04/14 12:30:17;;;;;;;2.13;1.33;;;10.80;66.60;;;;;;5014468;28;20030;-72
2021/04/14 12:32:42;;;;;;;4.43;2.03;;;10.90;66.40;;;;;;5014618;28;20049;-73
2021/04/14 12:35:09;;;;;;;3.85;1.70;;;10.90;66.10;;;;;;5014756;28;20478;-73
2021/04/14 12:37:35;;;;;;;3.85;1.95;;;11.00;65.60;;;;;;5014579;28;20034;-71
2021/04/14 12:40:02;;;;;;;4.47;2.00;;;10.90;65.20;;;;;;5012808;28;20398;-71
2021/04/14 12:42:32;;;;;;;4.38;1.80;;;10.80;65.30;;;;;;5013452;28;20033;-72
2021/04/14 12:44:59;;;;;;;5.05;1.73;;;10.70;65.10;;;;;;5014413;28;20053;-72
2021/04/14 12:47:28;;;;;;;2.08;1.15;;;10.90;65.20;;;;;;5013470;28;20046;-72
2021/04/14 12:49:55;;;;;;;2.20;1.20;;;11.10;64.60;;;;;;5014228;28;20026;-72
2021/04/14 12:52:36;;;;;;;3.38;1.38;;;11.50;64.00;;;;;;5011703;28;20083;-72
2021/04/14 12:55:10;;;;;;;2.03;1.03;;;11.90;63.40;;;;;;5014016;28;20025;-72
2021/04/14 12:57:39;;;;;;;2.45;1.40;;;12.10;62.70;;;;;;5013544;28;20280;-75
2021/04/14 13:00:13;;;;;;;0.82;0.70;;;12.30;61.90;;;;;;5013837;28;20068;-72
2021/04/14 13:03:00;;;;;;;2.35;1.55;;;12.40;61.80;;;;;;5013380;28;20065;-72
2021/04/14 13:05:29;;;;;;;2.78;0.90;;;12.30;61.80;;;;;;5012480;28;20042;-73
2021/04/14 13:07:57;;;;;;;1.00;0.93;;;12.20;61.50;;;;;;5014023;28;20076;-72
2021/04/14 13:10:26;;;;;;;3.28;1.50;;;12.10;61.30;;;;;;5013242;28;20037;-72
2021/04/14 13:12:52;;;;;;;2.42;1.42;;;11.90;61.20;;;;;;5013319;28;20171;-72
2021/04/14 13:15:31;;;;;;;2.78;1.70;;;11.80;61.10;;;;;;5013115;28;20084;-74
2021/04/14 13:17:59;;;;;;;2.35;1.10;;;11.80;60.60;;;;;;5013762;28;20495;-71
2021/04/14 13:20:25;;;;;;;1.10;1.00;;;11.70;59.60;;;;;;5012786;28;20111;-72